Davis Vantage Pro 2 Aktiv Plus 6163EU 24h Lftung - Paderborn Riemeke
Wetterdaten: aktuell Dienstag, 18.06.2019 15:59
Datum Zeit Temp. I. Temp. A. Feuchte I. Feuchte A. Luftdruck Regen Wind Richtung Richtung Sonnenschein ET UV Solar Taupunkt Windchill Windben
18.06.2019 15:59 26,3 C 29,1 C 50 % 39 % 1012,7 hPa 0,0 l/m 0,0 km/h (0 Bft) - - 0 43 min 0,000 mm 2,9 UV-I 589 W/m 13,7 C 29,1 C 0,0 km/h (0 Bft)
18.06.2019 14:59 26,0 C 29,9 C 50 % 40 % 1013,1 hPa 0,0 l/m 0,0 km/h (0 Bft) - - 0 54 min 0,000 mm 2,6 UV-I 250 W/m 14,8 C 29,9 C 0,0 km/h (0 Bft)
18.06.2019 13:59 25,6 C 28,6 C 50 % 41 % 1013,3 hPa 0,0 l/m 0,0 km/h (0 Bft) - - 0 21 min 0,000 mm 4,5 UV-I 891 W/m 14,0 C 28,6 C 0,0 km/h (0 Bft)
18.06.2019 12:59 25,2 C 28,4 C 51 % 43 % 1014,0 hPa 0,0 l/m 0,0 km/h (0 Bft) - - 0 0 min 0,000 mm 2,1 UV-I 248 W/m 14,6 C 28,4 C 0,0 km/h (0 Bft)
18.06.2019 11:59 24,9 C 28,7 C 51 % 44 % 1014,3 hPa 0,0 l/m 0,0 km/h (0 Bft) - - 0 54 min 0,000 mm 3,8 UV-I 315 W/m 15,2 C 28,7 C 0,0 km/h (0 Bft)
18.06.2019 10:59 24,3 C 26,8 C 52 % 47 % 1014,9 hPa 0,0 l/m 0,0 km/h (0 Bft) - - 0 60 min 0,000 mm 3,6 UV-I 638 W/m 14,5 C 26,8 C 0,0 km/h (0 Bft)
18.06.2019 09:59 23,8 C 25,5 C 52 % 52 % 1015,3 hPa 0,0 l/m 0,0 km/h (0 Bft) - - 0 60 min 0,000 mm 2,5 UV-I 535 W/m 14,9 C 25,5 C 0,0 km/h (0 Bft)
18.06.2019 08:59 23,3 C 23,2 C 53 % 60 % 1015,6 hPa 0,0 l/m 0,0 km/h (0 Bft) - - 0 36 min 0,000 mm 1,5 UV-I 397 W/m 15,0 C 23,2 C 0,0 km/h (0 Bft)
18.06.2019 07:59 22,6 C 21,3 C 54 % 64 % 1015,4 hPa 0,0 l/m 0,0 km/h (0 Bft) - - 0 7 min 0,000 mm 0,6 UV-I 165 W/m 14,2 C 21,3 C 0,0 km/h (0 Bft)
18.06.2019 06:59 22,0 C 20,4 C 54 % 65 % 1015,4 hPa 0,0 l/m 0,0 km/h (0 Bft) - - 0 1 min 0,000 mm 0,0 UV-I 90 W/m 13,6 C 20,4 C 0,0 km/h (0 Bft)
18.06.2019 05:59 22,4 C 19,4 C 52 % 67 % 1015,5 hPa 0,0 l/m 0,0 km/h (0 Bft) - - 0 0 min 0,000 mm 0,0 UV-I 35 W/m 13,1 C 19,4 C 0,0 km/h (0 Bft)
18.06.2019 04:59 22,3 C 19,8 C 52 % 65 % 1015,8 hPa 0,0 l/m 0,0 km/h (0 Bft) - - 0 0 min 0,000 mm 0,0 UV-I 0 W/m 13,0 C 19,8 C 0,0 km/h (0 Bft)
18.06.2019 03:59 22,1 C 19,8 C 52 % 65 % 1016,0 hPa 0,0 l/m 0,0 km/h (0 Bft) - - 0 0 min 0,000 mm 0,0 UV-I 0 W/m 13,0 C 19,8 C 0,0 km/h (0 Bft)
18.06.2019 02:59 22,1 C 19,3 C 53 % 68 % 1016,5 hPa 0,0 l/m 0,0 km/h (0 Bft) - - 0 0 min 0,000 mm 0,0 UV-I 0 W/m 13,2 C 19,3 C 0,0 km/h (0 Bft)
18.06.2019 01:59 22,2 C 19,1 C 52 % 69 % 1016,7 hPa 0,0 l/m 0,0 km/h (0 Bft) - - 0 0 min 0,000 mm 0,0 UV-I 0 W/m 13,3 C 19,1 C 0,0 km/h (0 Bft)
18.06.2019 00:59 23,0 C 19,8 C 50 % 66 % 1017,1 hPa 0,0 l/m 0,0 km/h (0 Bft) - - 0 0 min 0,000 mm 0,0 UV-I 0 W/m 13,3 C 19,8 C 0,0 km/h (0 Bft)
17.06.2019 23:59 23,9 C 20,8 C 48 % 63 % 1017,3 hPa 0,0 l/m 0,0 km/h (0 Bft) - - 0 0 min 0,000 mm 0,0 UV-I 0 W/m 13,5 C 20,8 C 0,0 km/h (0 Bft)
17.06.2019 22:59 25,4 C 21,7 C 45 % 60 % 1017,4 hPa 0,0 l/m 0,0 km/h (0 Bft) - - 0 0 min 0,000 mm 0,0 UV-I 0 W/m 13,6 C 21,7 C 0,0 km/h (0 Bft)
17.06.2019 21:59 26,6 C 23,2 C 42 % 56 % 1017,4 hPa 0,0 l/m 0,0 km/h (0 Bft) - - 0 0 min 0,000 mm 0,0 UV-I 0 W/m 13,9 C 23,2 C 0,0 km/h (0 Bft)
17.06.2019 20:59 26,8 C 24,7 C 41 % 49 % 1017,2 hPa 0,0 l/m 0,0 km/h (0 Bft) - - 0 43 min 0,000 mm 0,0 UV-I 40 W/m 13,3 C 24,7 C 0,0 km/h (0 Bft)
17.06.2019 19:59 26,6 C 25,5 C 40 % 45 % 1017,4 hPa 0,0 l/m 0,0 km/h (0 Bft) - - 0 60 min 0,000 mm 0,0 UV-I 172 W/m 12,7 C 25,5 C 0,0 km/h (0 Bft)
17.06.2019 18:59 26,7 C 25,9 C 39 % 43 % 1017,7 hPa 0,0 l/m 0,0 km/h (0 Bft) - - 0 60 min 0,000 mm 0,7 UV-I 318 W/m 12,3 C 25,9 C 0,0 km/h (0 Bft)
17.06.2019 17:59 26,9 C 26,2 C 39 % 44 % 1017,9 hPa 0,0 l/m 0,0 km/h (0 Bft) - - 0 60 min 0,000 mm 1,3 UV-I 477 W/m 13,0 C 26,2 C 0,0 km/h (0 Bft)
17.06.2019 16:59 26,9 C 26,1 C 38 % 42 % 1018,6 hPa 0,0 l/m 0,0 km/h (0 Bft) - - 0 59 min 0,000 mm 2,3 UV-I 629 W/m 12,2 C 26,1 C 0,0 km/h (0 Bft)
17.06.2019 16:00 26,9 C 26,2 C 40 % 45 % 1019,1 hPa 0,0 l/m 0,0 km/h (0 Bft) - - 0 0 min 0,000 mm 3,5 UV-I 733 W/m 13,3 C 26,2 C 0,0 km/h (0 Bft)
_ Min-Zeit 06:27 01:50 17:28 14:54 15:26 - 16:00 - - - - - - 17:30 01:54 16:00
Minimum _ 21,9 C 19,1 C 37 % 37 % 1012,7 hPa - 0,0 km/h (0 Bft) - - - - - - 11,6 C 19,1 C 0,0 km/h (0 Bft)
_ Max-Zeit 16:50 14:56 06:36 01:56 16:00 16:00 16:00 - - 16:00 16:00 13:30 14:31 10:53 14:56 16:00
Maximum _ 27,0 C 30,3 C 54 % 69 % 1019,1 hPa 0,0 l/m 0,0 km/h
- - (0 Bft)
- - 5 min 0,000 mm 4,9 UV-I 997 W/m 16,1 C 30,3 C 0,0 km/h
- - (0 Bft)
Durchschnitt _ 24,7 C 24,0 C 48 % 53 % 1016,3 hPa #0,0 l/m 0,0 km/h (0 Bft) N - #5:36 h #0,000 mm 2,8 UV-I 407 W/m 13,6 C 24,0 C 0,0 km/h (0 Bft)
© Andreas P. Gnther